createdAt,value
2019-04-25T00:01:01.172Z,96324.89
2019-04-25T00:03:31.918Z,96327.63
2019-04-25T00:05:57.909Z,96328.99
2019-04-25T00:08:25.366Z,96328.36
2019-04-25T00:10:52.819Z,96322.86
2019-04-25T00:13:21.727Z,96315.35
2019-04-25T00:15:48.098Z,96318.23
2019-04-25T00:18:15.263Z,96322.45
2019-04-25T00:20:45.173Z,96320.69
2019-04-25T00:23:14.083Z,96313.10
2019-04-25T00:25:48.120Z,96311.19
2019-04-25T00:28:14.744Z,96306.55
2019-04-25T00:30:43.488Z,96308.08
2019-04-25T00:33:09.679Z,96310.95
2019-04-25T00:35:37.145Z,96323.34
2019-04-25T00:38:04.594Z,96321.13
2019-04-25T00:40:32.071Z,96315.31
2019-04-25T00:42:59.518Z,96316.97
2019-04-25T00:45:27.019Z,96310.11
2019-04-25T00:47:54.493Z,96310.84
2019-04-25T00:50:22.018Z,96310.83
2019-04-25T00:52:49.408Z,96310.41
2019-04-25T00:55:26.139Z,96314.84
2019-04-25T00:57:44.801Z,96325.55
2019-04-25T01:00:16.056Z,96316.20
2019-04-25T01:02:44.170Z,96327.09
2019-04-25T01:05:11.651Z,96323.29
2019-04-25T01:07:38.494Z,96328.13
2019-04-25T01:10:05.937Z,96333.34
2019-04-25T01:12:33.557Z,96319.91
2019-04-25T01:15:01.668Z,96327.80
2019-04-25T01:17:28.510Z,96332.86
2019-04-25T01:19:58.013Z,96333.41
2019-04-25T01:22:23.452Z,96336.05
2019-04-25T01:24:51.445Z,96340.16
2019-04-25T01:27:18.425Z,96348.48
2019-04-25T01:29:46.328Z,96345.48
2019-04-25T01:32:13.949Z,96350.00
2019-04-25T01:34:53.793Z,96352.28
2019-04-25T01:37:21.036Z,96338.55
2019-04-25T01:39:48.937Z,96343.44
2019-04-25T01:42:18.107Z,96349.68
2019-04-25T01:44:45.579Z,96354.28
2019-04-25T01:47:14.086Z,96356.56
2019-04-25T01:49:40.559Z,96350.09
2019-04-25T01:52:08.023Z,96356.61
2019-04-25T01:54:35.467Z,96351.44
2019-04-25T01:57:04.369Z,96343.69
2019-04-25T01:59:30.429Z,96357.41
2019-04-25T02:01:58.684Z,96356.02
2019-04-25T02:04:25.443Z,96352.47
2019-04-25T02:06:54.360Z,96350.33
2019-04-25T02:09:20.386Z,96350.94
2019-04-25T02:11:47.843Z,96344.97
2019-04-25T02:14:15.299Z,96344.91
2019-04-25T02:16:43.933Z,96355.59
2019-04-25T02:19:10.260Z,96358.43
2019-04-25T02:21:37.725Z,96354.98
2019-04-25T02:24:05.649Z,96348.20
2019-04-25T02:26:34.081Z,96343.06
2019-04-25T02:29:00.554Z,96339.72
2019-04-25T02:31:27.681Z,96339.80
2019-04-25T02:33:59.670Z,96346.00
2019-04-25T02:36:24.658Z,96343.66
2019-04-25T02:38:50.175Z,96355.70
2019-04-25T02:41:17.622Z,96357.80
2019-04-25T02:43:45.359Z,96355.78
2019-04-25T02:49:09.948Z,96356.24
2019-04-25T02:51:38.353Z,96351.30
2019-04-25T02:54:07.908Z,96359.89
2019-04-25T02:56:37.727Z,96362.16
2019-04-25T02:59:00.870Z,96363.46
2019-04-25T03:01:28.327Z,96364.94
2019-04-25T03:03:57.463Z,96359.86
2019-04-25T03:06:25.041Z,96363.25
2019-04-25T03:08:50.846Z,96358.12
2019-04-25T03:11:18.304Z,96365.05
2019-04-25T03:13:45.743Z,96354.91
2019-04-25T03:16:14.043Z,96354.64
2019-04-25T03:18:44.232Z,96356.50
2019-04-25T03:21:14.191Z,96346.91
2019-04-25T03:23:42.181Z,96355.39
2019-04-25T03:26:07.219Z,96356.83
2019-04-25T03:28:33.980Z,96354.69
2019-04-25T03:31:02.139Z,96347.89
2019-04-25T03:33:28.790Z,96346.41
2019-04-25T03:35:56.225Z,96354.98
2019-04-25T03:38:24.290Z,96347.41
2019-04-25T03:40:51.177Z,96341.41
2019-04-25T03:43:18.629Z,96335.61
2019-04-25T03:45:46.070Z,96338.41
2019-04-25T03:48:13.943Z,96336.92
2019-04-25T03:50:41.212Z,96345.87
2019-04-25T03:53:08.711Z,96346.70
2019-04-25T03:55:36.171Z,96346.29
2019-04-25T03:58:06.653Z,96352.38
2019-04-25T04:00:31.167Z,96344.39
2019-04-25T04:02:58.637Z,96340.69
2019-04-25T04:05:26.095Z,96344.62
2019-04-25T04:07:53.619Z,96344.55
2019-04-25T04:10:21.231Z,96340.56
2019-04-25T04:12:48.531Z,96335.22
2019-04-25T04:15:16.082Z,96325.72
2019-04-25T04:17:43.851Z,96331.80
2019-04-25T04:20:25.654Z,96333.78
2019-04-25T04:22:57.674Z,96334.54
2019-04-25T04:25:25.134Z,96339.61
2019-04-25T04:27:53.803Z,96335.55
2019-04-25T04:30:20.066Z,96338.06
2019-04-25T04:32:47.701Z,96341.94
2019-04-25T04:35:16.124Z,96335.16
2019-04-25T04:37:43.154Z,96329.41
2019-04-25T04:40:10.158Z,96335.34
2019-04-25T04:42:37.594Z,96334.66
2019-04-25T04:45:05.039Z,96330.27
2019-04-25T04:47:33.262Z,96329.42
2019-04-25T04:49:59.991Z,96331.92
2019-04-25T04:52:27.441Z,96330.25
2019-04-25T04:55:05.373Z,96321.70
2019-04-25T04:57:32.260Z,96325.50
2019-04-25T04:59:49.896Z,96327.34
2019-04-25T05:05:14.442Z,96340.42
2019-04-25T05:07:40.145Z,96343.73
2019-04-25T05:10:07.630Z,96331.30
2019-04-25T05:12:36.358Z,96335.92
2019-04-25T05:15:03.837Z,96329.19
2019-04-25T05:17:31.311Z,96328.17
2019-04-25T05:19:58.817Z,96324.03
2019-04-25T05:25:00.115Z,96325.41
2019-04-25T05:27:35.848Z,96320.09
2019-04-25T05:29:55.069Z,96315.88
2019-04-25T05:32:24.131Z,96310.17
2019-04-25T05:34:50.040Z,96306.99
2019-04-25T05:37:17.608Z,96325.27
2019-04-25T05:39:44.983Z,96322.38
2019-04-25T05:45:06.524Z,96321.87
2019-04-25T05:47:34.144Z,96310.38
2019-04-25T05:50:01.617Z,96320.14
2019-04-25T05:52:29.070Z,96318.20
2019-04-25T05:54:56.726Z,96322.23
2019-04-25T05:57:24.999Z,96315.99
2019-04-25T05:59:51.678Z,96310.66
2019-04-25T06:02:19.490Z,96309.20
2019-04-25T06:04:46.694Z,96312.90
2019-04-25T06:07:14.880Z,96309.90
2019-04-25T06:12:36.861Z,96299.05
2019-04-25T06:15:04.632Z,96304.42
2019-04-25T06:20:29.292Z,96301.70
2019-04-25T06:23:14.559Z,96308.86
2019-04-25T06:25:43.801Z,96307.12
2019-04-25T06:28:14.148Z,96302.38
2019-04-25T06:30:44.205Z,96304.88
2019-04-25T06:33:09.900Z,96297.72
2019-04-25T06:35:37.374Z,96297.16
2019-04-25T06:38:04.888Z,96293.05
2019-04-25T06:40:43.612Z,96285.72
2019-04-25T06:43:18.612Z,96293.88
2019-04-25T06:45:51.820Z,96284.88
2019-04-25T06:48:27.173Z,96289.08
2019-04-25T06:51:04.428Z,96292.11
2019-04-25T06:53:34.608Z,96293.81
2019-04-25T06:56:06.437Z,96293.86
2019-04-25T06:58:40.928Z,96296.64
2019-04-25T07:01:16.799Z,96280.16
2019-04-25T07:03:46.056Z,96275.91
2019-04-25T07:06:19.243Z,96281.17
2019-04-25T07:11:32.429Z,96278.80
2019-04-25T07:14:06.125Z,96281.69
2019-04-25T07:16:35.680Z,96273.71
2019-04-25T07:19:07.266Z,96279.67
2019-04-25T07:21:48.160Z,96275.23
2019-04-25T07:24:24.834Z,96277.21
2019-04-25T07:27:13.762Z,96266.83
2019-04-25T07:29:44.186Z,96271.22
2019-04-25T07:32:19.127Z,96268.41
2019-04-25T07:34:46.644Z,96258.11
2019-04-25T07:37:14.105Z,96255.77
2019-04-25T07:39:41.590Z,96244.37
2019-04-25T07:42:09.095Z,96239.14
2019-04-25T07:44:49.303Z,96249.33
2019-04-25T07:47:04.128Z,96250.57
2019-04-25T07:49:33.060Z,96256.48
2019-04-25T07:51:59.991Z,96236.91
2019-04-25T07:54:27.868Z,96232.76
2019-04-25T07:56:55.163Z,96244.09
2019-04-25T07:59:23.735Z,96237.09
2019-04-25T08:01:50.074Z,96238.23
2019-04-25T08:04:17.605Z,96234.05
2019-04-25T08:06:45.090Z,96240.27
2019-04-25T08:09:15.448Z,96244.47
2019-04-25T08:11:40.104Z,96246.20
2019-04-25T08:14:18.354Z,96237.01
2019-04-25T08:16:46.573Z,96233.98
2019-04-25T08:19:14.037Z,96238.30
2019-04-25T08:21:41.572Z,96236.16
2019-04-25T08:24:09.207Z,96243.09
2019-04-25T08:26:37.518Z,96238.73
2019-04-25T08:29:04.201Z,96230.11
2019-04-25T08:31:33.881Z,96237.14
2019-04-25T08:33:59.184Z,96244.52
2019-04-25T08:36:26.932Z,96239.16
2019-04-25T08:38:55.214Z,96254.59
2019-04-25T08:41:23.923Z,96245.89
2019-04-25T08:43:50.264Z,96238.53
2019-04-25T08:46:17.732Z,96228.89
2019-04-25T08:48:50.681Z,96236.53
2019-04-25T08:51:18.171Z,96241.86
2019-04-25T08:53:48.438Z,96243.14
2019-04-25T08:56:15.930Z,96238.25
2019-04-25T08:58:45.359Z,96231.05
2019-04-25T09:01:14.113Z,96247.86
2019-04-25T09:03:44.332Z,96249.22
2019-04-25T09:06:10.810Z,96237.77
2019-04-25T09:08:39.358Z,96247.34
2019-04-25T09:11:05.735Z,96249.31
2019-04-25T09:13:35.831Z,96241.42
2019-04-25T09:16:00.717Z,96235.23
2019-04-25T09:18:28.226Z,96235.14
2019-04-25T09:20:55.675Z,96226.95
2019-04-25T09:23:23.664Z,96219.34
2019-04-25T09:25:50.663Z,96217.42
2019-04-25T09:28:18.207Z,96213.91
2019-04-25T09:30:45.981Z,96216.97
2019-04-25T09:33:13.343Z,96214.31
2019-04-25T09:35:41.627Z,96217.95
2019-04-25T09:38:08.145Z,96206.97
2019-04-25T09:40:36.116Z,96209.47
2019-04-25T09:43:03.630Z,96207.67
2019-04-25T09:45:43.965Z,96211.66
2019-04-25T09:51:16.801Z,96192.61
2019-04-25T09:53:49.610Z,96201.47
2019-04-25T09:56:22.002Z,96201.23
2019-04-25T09:58:53.758Z,96208.53
2019-04-25T10:01:19.618Z,96200.41
2019-04-25T10:03:47.386Z,96204.55
2019-04-25T10:06:14.722Z,96199.23
2019-04-25T10:08:43.631Z,96193.61
2019-04-25T10:11:09.694Z,96188.87
2019-04-25T10:13:37.597Z,96185.30
2019-04-25T10:16:05.514Z,96182.85
2019-04-25T10:18:33.455Z,96189.45
2019-04-25T10:21:00.636Z,96181.15
2019-04-25T10:23:28.118Z,96171.82
2019-04-25T10:25:55.745Z,96173.30
2019-04-25T10:28:23.435Z,96172.71
2019-04-25T10:30:50.714Z,96176.21
2019-04-25T10:33:18.175Z,96164.17
2019-04-25T10:35:52.141Z,96166.31
2019-04-25T10:38:13.893Z,96169.13
2019-04-25T10:40:40.566Z,96171.94
2019-04-25T10:43:06.688Z,96168.78
2019-04-25T10:45:34.190Z,96162.99
2019-04-25T10:48:01.693Z,96171.31
2019-04-25T10:50:29.142Z,96174.11
2019-04-25T10:52:56.678Z,96174.83
2019-04-25T10:55:24.139Z,96174.24
2019-04-25T10:57:51.640Z,96177.45
2019-04-25T11:00:20.616Z,96170.78
2019-04-25T11:02:48.095Z,96162.12
2019-04-25T11:05:15.597Z,96163.62
2019-04-25T11:07:43.044Z,96163.73
2019-04-25T11:10:10.496Z,96161.28
2019-04-25T11:12:38.253Z,96163.17
2019-04-25T11:15:05.772Z,96159.37
2019-04-25T11:17:33.895Z,96169.38
2019-04-25T11:20:00.806Z,96170.33
2019-04-25T11:22:28.288Z,96168.19
2019-04-25T11:24:55.748Z,96170.70
2019-04-25T11:27:23.956Z,96171.10
2019-04-25T11:29:50.785Z,96158.98
2019-04-25T11:32:19.889Z,96165.71
2019-04-25T11:34:47.218Z,96162.95
2019-04-25T11:37:14.717Z,96154.02
2019-04-25T11:39:45.757Z,96147.89
2019-04-25T11:42:13.118Z,96151.98
2019-04-25T11:44:39.642Z,96153.97
2019-04-25T11:47:08.587Z,96161.06
2019-04-25T11:49:34.657Z,96150.56
2019-04-25T11:52:03.411Z,96170.13
2019-04-25T11:54:29.646Z,96164.98
2019-04-25T11:56:57.104Z,96158.67
2019-04-25T11:59:24.659Z,96164.67
2019-04-25T12:01:52.313Z,96163.97
2019-04-25T12:04:19.738Z,96159.52
2019-04-25T12:06:47.616Z,96160.86
2019-04-25T12:09:14.723Z,96162.45
2019-04-25T12:11:44.723Z,96163.56
2019-04-25T12:14:09.698Z,96162.39
2019-04-25T12:16:37.263Z,96164.23
2019-04-25T12:19:04.893Z,96165.81
2019-04-25T12:21:32.229Z,96159.42
2019-04-25T12:24:01.808Z,96163.41
2019-04-25T12:26:27.195Z,96170.33
2019-04-25T12:28:56.407Z,96169.75
2019-04-25T12:31:23.751Z,96157.59
2019-04-25T12:33:50.031Z,96162.64
2019-04-25T12:36:17.244Z,96165.30
2019-04-25T12:38:46.047Z,96161.06
2019-04-25T12:41:12.203Z,96162.73
2019-04-25T12:43:39.744Z,96151.69
2019-04-25T12:46:07.371Z,96158.52
2019-04-25T12:48:34.843Z,96154.41
2019-04-25T12:51:03.234Z,96139.94
2019-04-25T12:53:29.835Z,96136.61
2019-04-25T12:55:57.286Z,96131.77
2019-04-25T12:58:24.751Z,96142.69
2019-04-25T13:00:54.943Z,96146.36
2019-04-25T13:03:20.115Z,96148.11
2019-04-25T13:05:47.571Z,96138.94
2019-04-25T13:08:15.066Z,96135.11
2019-04-25T13:10:44.303Z,96131.39
2019-04-25T13:13:10.232Z,96143.91
2019-04-25T13:15:37.718Z,96135.91
2019-04-25T13:18:05.160Z,96118.23
2019-04-25T13:20:32.627Z,96123.69
2019-04-25T13:23:00.582Z,96123.27
2019-04-25T13:25:27.096Z,96120.33
2019-04-25T13:28:09.897Z,96124.48
2019-04-25T13:30:42.647Z,96125.30
2019-04-25T13:33:20.120Z,96126.17
2019-04-25T13:35:54.257Z,96119.29
2019-04-25T13:38:20.070Z,96117.38
2019-04-25T13:40:47.531Z,96113.80
2019-04-25T13:43:15.144Z,96120.23
2019-04-25T13:45:42.603Z,96114.11
2019-04-25T13:48:10.164Z,96113.81
2019-04-25T13:50:37.618Z,96115.67
2019-04-25T13:53:05.077Z,96115.97
2019-04-25T13:55:32.531Z,96102.26
2019-04-25T13:58:00.055Z,96097.58
2019-04-25T14:00:27.746Z,96103.77
2019-04-25T14:02:55.039Z,96106.05
2019-04-25T14:05:24.226Z,96086.54
2019-04-25T14:07:50.029Z,96091.60
2019-04-25T14:10:17.478Z,96092.00
2019-04-25T14:12:44.978Z,96102.16
2019-04-25T14:15:13.875Z,96122.98
2019-04-25T14:17:45.458Z,96109.98
2019-04-25T14:20:16.928Z,96115.16
2019-04-25T14:22:45.439Z,96112.66
2019-04-25T14:25:11.887Z,96109.82
2019-04-25T14:27:39.371Z,96102.20
2019-04-25T14:30:06.862Z,96090.15
2019-04-25T14:32:35.170Z,96069.33
2019-04-25T14:35:03.312Z,96071.78
2019-04-25T14:37:32.931Z,96076.70
2019-04-25T14:39:56.901Z,96073.53
2019-04-25T14:42:24.561Z,96074.45
2019-04-25T14:44:51.943Z,96076.47
2019-04-25T14:47:19.478Z,96084.99
2019-04-25T14:49:46.943Z,96079.09
2019-04-25T14:52:14.411Z,96076.50
2019-04-25T14:54:45.549Z,96069.80
2019-04-25T14:57:13.938Z,96063.61
2019-04-25T14:59:41.399Z,96067.73
2019-04-25T15:02:08.899Z,96060.36
2019-04-25T15:04:36.358Z,96067.22
2019-04-25T15:07:04.053Z,96070.59
2019-04-25T15:09:32.261Z,96078.86
2019-04-25T15:11:59.015Z,96083.34
2019-04-25T15:14:26.939Z,96085.08
2019-04-25T15:16:53.996Z,96074.36
2019-04-25T15:19:21.439Z,96076.95
2019-04-25T15:21:48.899Z,96080.55
2019-04-25T15:24:16.387Z,96083.76
2019-04-25T15:26:44.152Z,96087.30
2019-04-25T15:29:16.437Z,96093.07
2019-04-25T15:31:55.201Z,96090.27
2019-04-25T15:34:11.917Z,96077.74
2019-04-25T15:36:39.377Z,96096.09
2019-04-25T15:39:12.240Z,96103.61
2019-04-25T15:41:40.215Z,96104.68
2019-04-25T15:44:13.196Z,96100.91
2019-04-25T15:46:40.682Z,96106.35
2019-04-25T15:49:08.194Z,96091.56
2019-04-25T15:51:35.680Z,96103.30
2019-04-25T15:54:03.174Z,96112.47
2019-04-25T15:56:30.634Z,96110.14
2019-04-25T15:58:58.165Z,96106.01
2019-04-25T16:01:26.370Z,96096.92
2019-04-25T16:03:53.208Z,96101.69
2019-04-25T16:06:20.660Z,96107.94
2019-04-25T16:08:48.127Z,96104.58
2019-04-25T16:11:15.679Z,96109.59
2019-04-25T16:13:43.211Z,96108.82
2019-04-25T16:16:10.728Z,96117.84
2019-04-25T16:18:38.457Z,96123.82
2019-04-25T16:21:05.951Z,96130.80
2019-04-25T16:23:34.320Z,96141.75
2019-04-25T16:26:01.053Z,96156.89
2019-04-25T16:28:28.841Z,96165.59
2019-04-25T16:30:56.030Z,96177.72
2019-04-25T16:33:23.475Z,96181.36
2019-04-25T16:35:50.923Z,96182.84
2019-04-25T16:38:18.368Z,96191.28
2019-04-25T16:40:45.941Z,96193.92
2019-04-25T16:43:13.553Z,96195.34
2019-04-25T16:45:41.374Z,96192.38
2019-04-25T16:48:08.553Z,96189.04
2019-04-25T16:50:36.507Z,96179.50
2019-04-25T16:53:03.743Z,96168.33
2019-04-25T16:55:31.745Z,96159.11
2019-04-25T16:57:58.666Z,96163.03
2019-04-25T17:03:24.230Z,96162.81
2019-04-25T17:05:51.742Z,96164.24
2019-04-25T17:08:19.185Z,96157.84
2019-04-25T17:10:46.736Z,96158.05
2019-04-25T17:13:14.304Z,96150.35
2019-04-25T17:18:36.108Z,96150.70
2019-04-25T17:21:02.981Z,96140.00
2019-04-25T17:23:31.173Z,96147.14
2019-04-25T17:25:58.140Z,96131.75
2019-04-25T17:28:25.624Z,96127.25
2019-04-25T17:30:53.081Z,96136.06
2019-04-25T17:33:21.232Z,96134.92
2019-04-25T17:36:04.576Z,96140.83
2019-04-25T17:38:37.512Z,96138.27
2019-04-25T17:41:04.220Z,96146.50
2019-04-25T17:43:31.985Z,96166.02
2019-04-25T17:45:59.263Z,96180.23
2019-04-25T17:48:26.765Z,96195.39
2019-04-25T17:50:54.219Z,96197.14
2019-04-25T17:53:22.465Z,96208.08
2019-04-25T17:55:49.916Z,96214.73
2019-04-25T17:58:17.354Z,96234.21
2019-04-25T18:00:45.054Z,96235.29
2019-04-25T18:03:12.431Z,96251.00
2019-04-25T18:05:40.048Z,96249.26
2019-04-25T18:08:07.492Z,96240.33
2019-04-25T18:10:35.618Z,96241.36
2019-04-25T18:13:02.530Z,96242.77
2019-04-25T18:15:29.978Z,96244.62
2019-04-25T18:17:57.443Z,96264.37
2019-04-25T18:20:24.882Z,96267.20
2019-04-25T18:22:53.178Z,96276.50
2019-04-25T18:25:26.325Z,96284.40
2019-04-25T18:27:59.532Z,96294.59
2019-04-25T18:30:26.982Z,96307.19
2019-04-25T18:35:49.489Z,96291.80
2019-04-25T18:41:12.231Z,96291.38
2019-04-25T18:43:40.156Z,96300.29
2019-04-25T18:46:07.667Z,96300.91
2019-04-25T18:48:36.885Z,96305.66
2019-04-25T18:51:02.649Z,96318.50
2019-04-25T18:53:34.741Z,96317.69
2019-04-25T18:56:07.030Z,96337.00
2019-04-25T18:58:40.299Z,96341.10
2019-04-25T19:01:08.273Z,96357.50
2019-04-25T19:03:38.279Z,96368.52
2019-04-25T19:06:05.159Z,96389.38
2019-04-25T19:08:32.772Z,96398.19
2019-04-25T19:11:00.310Z,96379.12
2019-04-25T19:13:27.740Z,96356.88
2019-04-25T19:15:55.203Z,96364.00
2019-04-25T19:18:22.671Z,96330.91
2019-04-25T19:20:50.191Z,96314.90
2019-04-25T19:23:17.642Z,96325.30
2019-04-25T19:25:45.836Z,96330.16
2019-04-25T19:28:12.634Z,96331.36
2019-04-25T19:30:40.995Z,96357.62
2019-04-25T19:33:07.757Z,96364.27
2019-04-25T19:35:35.146Z,96367.00
2019-04-25T19:38:02.606Z,96371.30
2019-04-25T19:40:32.591Z,96385.23
2019-04-25T19:43:00.143Z,96395.81
2019-04-25T19:45:27.663Z,96395.16
2019-04-25T19:47:55.118Z,96410.88
2019-04-25T19:50:22.585Z,96413.94
2019-04-25T19:52:50.052Z,96407.06
2019-04-25T19:55:17.559Z,96376.58
2019-04-25T19:57:46.108Z,96382.05
2019-04-25T20:00:12.605Z,96411.05
2019-04-25T20:05:38.702Z,96411.16
2019-04-25T20:08:24.998Z,96436.97
2019-04-25T20:10:56.269Z,96446.84
2019-04-25T20:13:23.815Z,96444.14
2019-04-25T20:15:51.736Z,96446.52
2019-04-25T20:18:19.771Z,96464.04
2019-04-25T20:20:47.805Z,96484.58
2019-04-25T20:23:14.704Z,96498.38
2019-04-25T20:25:42.229Z,96512.88
2019-04-25T20:28:09.804Z,96537.27
2019-04-25T20:30:37.473Z,96519.78
2019-04-25T20:33:04.922Z,96518.09
2019-04-25T20:35:32.398Z,96541.97
2019-04-25T20:37:59.936Z,96531.38
2019-04-25T20:40:27.397Z,96553.45
2019-04-25T20:42:54.849Z,96566.66
2019-04-25T20:45:22.435Z,96578.95
2019-04-25T20:47:50.089Z,96581.97
2019-04-25T20:50:17.531Z,96581.30
2019-04-25T20:52:44.631Z,96568.72
2019-04-25T20:55:11.860Z,96577.31
2019-04-25T20:57:39.116Z,96582.64
2019-04-25T21:00:06.130Z,96592.44
2019-04-25T21:02:33.808Z,96602.18
2019-04-25T21:05:01.062Z,96600.14
2019-04-25T21:07:27.947Z,96624.19
2019-04-25T21:09:55.440Z,96639.48
2019-04-25T21:12:22.912Z,96639.64
2019-04-25T21:14:50.668Z,96644.72
2019-04-25T21:17:32.967Z,96635.47
2019-04-25T21:20:00.423Z,96637.83
2019-04-25T21:22:27.884Z,96649.19
2019-04-25T21:24:55.843Z,96660.59
2019-04-25T21:27:23.031Z,96673.39
2019-04-25T21:29:52.123Z,96683.36
2019-04-25T21:32:19.333Z,96689.56
2019-04-25T21:34:46.805Z,96692.04
2019-04-25T21:37:14.301Z,96710.91
2019-04-25T21:39:47.762Z,96724.98
2019-04-25T21:42:14.965Z,96730.11
2019-04-25T21:44:42.003Z,96732.39
2019-04-25T21:47:09.208Z,96726.02
2019-04-25T21:49:36.247Z,96729.85
2019-04-25T21:52:03.359Z,96740.16
2019-04-25T21:54:30.358Z,96754.11
2019-04-25T21:56:57.621Z,96744.11
2019-04-25T21:59:24.573Z,96758.23
2019-04-25T22:01:51.581Z,96754.67
2019-04-25T22:04:18.574Z,96757.65
2019-04-25T22:06:46.056Z,96785.16
2019-04-25T22:09:14.919Z,96801.25
2019-04-25T22:11:42.128Z,96815.63
2019-04-25T22:14:09.206Z,96806.29
2019-04-25T22:16:36.277Z,96814.59
2019-04-25T22:19:04.276Z,96821.55
2019-04-25T22:21:37.778Z,96834.94
2019-04-25T22:24:06.253Z,96858.09
2019-04-25T22:26:24.590Z,96858.98
2019-04-25T22:28:51.618Z,96864.61
2019-04-25T22:31:23.596Z,96864.26
2019-04-25T22:33:55.482Z,96869.27
2019-04-25T22:36:20.798Z,96883.02
2019-04-25T22:38:47.805Z,96868.53
2019-04-25T22:41:14.785Z,96855.67
2019-04-25T22:43:41.821Z,96862.22
2019-04-25T22:46:08.865Z,96862.05
2019-04-25T22:48:41.775Z,96877.96
2019-04-25T22:51:08.763Z,96893.22
2019-04-25T22:53:36.216Z,96890.71
2019-04-25T22:56:03.217Z,96889.88
2019-04-25T22:58:30.249Z,96873.64
2019-04-25T23:00:57.755Z,96873.33
2019-04-25T23:03:27.051Z,96870.56
2019-04-25T23:05:54.578Z,96871.95
2019-04-25T23:08:22.087Z,96860.50
2019-04-25T23:10:49.714Z,96860.71
2019-04-25T23:13:16.843Z,96859.43
2019-04-25T23:15:43.847Z,96863.86
2019-04-25T23:18:11.396Z,96874.59
2019-04-25T23:20:37.999Z,96878.57
2019-04-25T23:23:05.866Z,96893.74
2019-04-25T23:25:32.984Z,96889.25
2019-04-25T23:28:00.746Z,96892.25
2019-04-25T23:30:28.325Z,96885.09
2019-04-25T23:32:55.366Z,96884.15
2019-04-25T23:35:29.366Z,96879.60
2019-04-25T23:37:49.584Z,96886.00
2019-04-25T23:40:17.251Z,96882.83
2019-04-25T23:42:44.305Z,96884.55
2019-04-25T23:45:12.359Z,96902.18
2019-04-25T23:47:39.531Z,96906.91
2019-04-25T23:50:07.185Z,96902.55
2019-04-25T23:52:33.852Z,96906.91
2019-04-25T23:55:01.720Z,96912.41
2019-04-25T23:57:29.194Z,96925.98
2019-04-25T23:59:56.535Z,96931.08
